ENHV/HVG METAR and TAF weather

Enter ICAO airport designator
Station Type Date Time Source
ENHV METAR 2019/12/11 14:50 UTC NOAA

ENHV 111450Z 14024G34KT 1500 +BLSN VV015 M05/M07 Q0989


Station Type Date Time Source
ENHV Decoded METAR 2019/12/11 14:50 UTC NOAA

Honningsvag / Valan, Norway (ENHV) 71-01N 025-59E 14M
Dec 11, 2019 - 09:50 AM EST / 2019.12.11 1450 UTC
Wind: from the SE (140 degrees) at 28 MPH (24 KT) gusting to 39 MPH (34 KT):0
Visibility: less than 1 mile:0
Sky conditions: obscured
Weather: heavy blowing snow
Temperature: 23 F (-5 C)
Windchill: 5 F (-15 C):1
Dew Point: 19 F (-7 C)
Relative Humidity: 85%
Pressure (altimeter): 29.21 in. Hg (0989 hPa)
ob: ENHV 111450Z 14024G34KT 1500 +BLSN VV015 M05/M07 Q0989
cycle: 15

Station Type Date Time Source
ENHV TAF UTC NOAA

Error!

Example: see airport list